Time;durP1;ratioP1;P1;durP2;ratioP2;P2;SDS_P1;SDS_P2;PMS_P1;PMS_P2;Temp;Humidity;BMP_temperature;BMP_pressure;BME280_temperature;BME280_humidity;BME280_pressure;Samples;Min_cycle;Max_cycle;Signal;HPM_P1;HPM_P2
2021/09/02 00:02:22;;;;;;;13.35;2.63;;;;;;;20.07;62.35;100630.13;4954529;29;20094;-80
2021/09/02 00:04:49;;;;;;;2.33;2.13;;;;;;;19.99;62.58;100635.22;4953721;28;20047;-80
2021/09/02 00:07:15;;;;;;;3.28;2.03;;;;;;;19.66;63.61;100633.56;4957421;29;20070;-80
2021/09/02 00:09:42;;;;;;;3.40;2.45;;;;;;;19.55;64.06;100626.47;4957519;29;20094;-79
2021/09/02 00:12:09;;;;;;;2.47;2.28;;;;;;;19.71;63.58;100635.81;4957358;29;20051;-79
2021/09/02 00:14:36;;;;;;;5.03;2.13;;;;;;;19.75;63.44;100629.31;4957629;29;20047;-80
2021/09/02 00:17:03;;;;;;;2.40;2.20;;;;;;;19.72;63.34;100627.78;4957296;29;20039;-79
2021/09/02 00:19:29;;;;;;;3.50;2.40;;;;;;;20.04;63.64;100632.22;4957198;29;20043;-79
2021/09/02 00:21:56;;;;;;;7.80;3.03;;;;;;;20.08;61.62;100628.31;4956776;29;20040;-79
2021/09/02 00:24:23;;;;;;;9.25;3.15;;;;;;;19.96;61.30;100632.00;4957180;29;20094;-79
2021/09/02 00:26:50;;;;;;;4.05;2.95;;;;;;;19.69;62.40;100638.59;4957127;29;20102;-79
2021/09/02 00:29:16;;;;;;;3.53;2.65;;;;;;;19.73;62.27;100632.09;4957036;29;20043;-79
2021/09/02 00:31:43;;;;;;;5.55;2.95;;;;;;;19.66;62.58;100638.88;4957173;29;20367;-79
2021/09/02 00:34:10;;;;;;;4.50;2.40;;;;;;;19.66;62.70;100636.22;4956939;29;20035;-79
2021/09/02 00:36:37;;;;;;;4.65;2.53;;;;;;;19.54;63.00;100634.50;4956865;29;20043;-79
2021/09/02 00:39:04;;;;;;;2.75;2.35;;;;;;;19.50;63.38;100638.41;4956713;29;20089;-79
2021/09/02 00:41:30;;;;;;;3.00;2.60;;;;;;;19.42;63.61;100640.81;4957042;29;20074;-79
2021/09/02 00:43:57;;;;;;;2.15;2.00;;;;;;;19.32;64.08;100644.19;4956172;29;20046;-80
2021/09/02 00:46:24;;;;;;;2.08;1.92;;;;;;;19.26;64.09;100633.28;4956977;29;20055;-80
2021/09/02 00:48:51;;;;;;;2.90;2.35;;;;;;;19.25;64.08;100637.72;4956600;29;20455;-80
2021/09/02 00:51:19;;;;;;;2.50;2.30;;;;;;;19.07;64.64;100639.19;4956921;29;20109;-80
2021/09/02 00:53:48;;;;;;;2.33;2.13;;;;;;;18.91;64.92;100650.13;4956289;29;20549;-80
2021/09/02 00:56:16;;;;;;;4.43;2.58;;;;;;;19.08;64.16;100643.50;4956732;29;20047;-80
2021/09/02 00:58:44;;;;;;;2.10;1.98;;;;;;;19.13;63.97;100644.00;4956556;29;20435;-80
2021/09/02 01:01:12;;;;;;;2.40;2.20;;;;;;;19.20;63.73;100644.34;4956425;29;20050;-81
2021/09/02 01:03:39;;;;;;;2.05;1.83;;;;;;;19.18;63.32;100641.00;4956742;29;20051;-80
2021/09/02 01:06:05;;;;;;;1.80;1.70;;;;;;;19.25;62.83;100643.00;4956208;29;20039;-80
2021/09/02 01:08:34;;;;;;;4.93;2.00;;;;;;;19.13;63.02;100654.56;4956359;29;20054;-80
2021/09/02 01:11:01;;;;;;;3.78;2.17;;;;;;;18.80;64.37;100658.91;4956378;29;20043;-80
2021/09/02 01:13:29;;;;;;;4.75;2.20;;;;;;;18.81;64.22;100660.56;4956511;29;20040;-80
2021/09/02 01:15:56;;;;;;;2.80;2.05;;;;;;;18.76;64.31;100659.25;4956084;29;20450;-80
2021/09/02 01:18:23;;;;;;;2.00;1.77;;;;;;;18.84;64.29;100670.88;4956175;28;20059;-80
2021/09/02 01:20:49;;;;;;;2.05;1.90;;;;;;;18.82;63.94;100658.78;4953701;29;20075;-80
2021/09/02 01:23:20;;;;;;;2.70;1.77;;;;;;;18.82;64.02;100662.25;4951466;29;20047;-81
2021/09/02 01:25:48;;;;;;;1.92;1.83;;;;;;;18.78;64.44;100665.25;4956406;29;20046;-80
2021/09/02 01:28:15;;;;;;;1.95;1.85;;;;;;;18.83;64.13;100671.84;4955418;29;20051;-80
2021/09/02 01:30:43;;;;;;;2.17;1.98;;;;;;;18.69;64.70;100672.06;4956252;29;20077;-80
2021/09/02 01:33:14;;;;;;;2.45;2.25;;;;;;;18.69;64.61;100665.94;4955694;29;20094;-80
2021/09/02 01:35:41;;;;;;;1.80;1.70;;;;;;;18.52;64.89;100675.13;4955443;29;20047;-80
2021/09/02 01:38:09;;;;;;;4.43;1.85;;;;;;;18.48;64.83;100671.03;4955428;29;20069;-80
2021/09/02 01:40:41;;;;;;;3.03;2.00;;;;;;;18.55;64.44;100674.91;4955897;29;20489;-80
2021/09/02 01:43:09;;;;;;;3.70;1.75;;;;;;;18.57;63.79;100673.81;4955606;29;20043;-79
2021/09/02 01:45:36;;;;;;;3.40;1.65;;;;;;;18.59;63.76;100673.72;4956178;29;20043;-79
2021/09/02 01:48:04;;;;;;;6.10;2.25;;;;;;;18.58;63.79;100670.22;4955492;29;20394;-79
2021/09/02 01:50:33;;;;;;;4.03;1.98;;;;;;;18.37;64.48;100674.50;4955801;29;20039;-80
2021/09/02 01:53:04;;;;;;;4.00;1.70;;;;;;;18.33;64.36;100681.81;4954012;29;20043;-80
2021/09/02 01:55:31;;;;;;;4.07;1.90;;;;;;;18.23;65.14;100675.56;4955021;29;20043;-79
2021/09/02 01:57:58;;;;;;;2.22;1.98;;;;;;;18.20;64.95;100680.22;4950006;29;20077;-80
2021/09/02 02:00:25;;;;;;;1.70;1.60;;;;;;;18.34;64.11;100680.03;4949859;29;20094;-80
2021/09/02 02:02:52;;;;;;;2.40;1.88;;;;;;;18.26;64.32;100680.59;4955454;29;20075;-80
2021/09/02 02:05:20;;;;;;;2.10;1.90;;;;;;;18.20;64.50;100682.84;4955675;29;20035;-80
2021/09/02 02:07:47;;;;;;;3.85;2.15;;;;;;;18.19;64.73;100679.38;4955536;29;20063;-80
2021/09/02 02:10:17;;;;;;;2.28;1.60;;;;;;;18.12;65.13;100686.06;4954844;29;20508;-80
2021/09/02 02:12:44;;;;;;;2.03;1.83;;;;;;;18.17;64.74;100677.81;4955289;29;20039;-78
2021/09/02 02:15:12;;;;;;;1.85;1.75;;;;;;;18.15;65.05;100680.53;4955312;29;20046;-81
2021/09/02 02:17:39;;;;;;;2.05;1.83;;;;;;;18.10;65.24;100687.97;4955127;29;20492;-79
2021/09/02 02:20:07;;;;;;;2.75;2.55;;;;;;;18.09;65.21;100685.44;4954907;29;20070;-78
2021/09/02 02:22:35;;;;;;;3.00;2.22;;;;;;;17.90;65.59;100686.00;4955379;29;20051;-79
2021/09/02 02:25:03;;;;;;;2.08;1.80;;;;;;;17.94;65.55;100682.97;4955537;29;20047;-79
2021/09/02 02:27:30;;;;;;;3.38;2.00;;;;;;;17.93;65.69;100681.31;4955335;29;20098;-80
2021/09/02 02:29:57;;;;;;;3.90;2.25;;;;;;;17.96;65.82;100677.63;4972499;28;20043;-80
2021/09/02 02:32:24;;;;;;;2.67;2.47;;;;;;;17.96;65.73;100673.19;4976817;29;20031;-79
2021/09/02 02:34:51;;;;;;;5.65;3.13;;;;;;;18.14;64.80;100670.13;4952488;29;20044;-79
2021/09/02 02:37:18;;;;;;;2.17;1.95;;;;;;;17.97;65.29;100674.84;4952974;29;20039;-80
2021/09/02 02:39:45;;;;;;;5.93;1.90;;;;;;;18.11;64.80;100675.63;4954600;29;20047;-80
2021/09/02 02:42:12;;;;;;;1.98;1.88;;;;;;;17.91;65.50;100674.47;4937402;29;20047;-79
2021/09/02 02:44:39;;;;;;;3.17;2.10;;;;;;;17.98;65.30;100683.59;4954417;29;20043;-80
2021/09/02 02:47:07;;;;;;;1.88;1.77;;;;;;;17.77;65.86;100676.31;4954680;29;20048;-79
2021/09/02 02:49:35;;;;;;;2.15;1.85;;;;;;;17.90;65.63;100681.56;4954191;29;20098;-80
2021/09/02 02:52:03;;;;;;;7.22;2.28;;;;;;;17.86;65.73;100687.16;4954596;29;20039;-79
2021/09/02 02:54:31;;;;;;;5.13;1.90;;;;;;;17.69;66.10;100694.47;4954536;29;20051;-79
2021/09/02 02:56:58;;;;;;;2.15;1.98;;;;;;;17.79;65.63;100698.16;4965450;29;20051;-80
2021/09/02 02:59:24;;;;;;;2.10;1.73;;;;;;;17.60;66.03;100695.13;4954772;29;20395;-78
2021/09/02 03:01:51;;;;;;;2.80;2.08;;;;;;;17.60;66.30;100696.94;4955447;29;20115;-79
2021/09/02 03:04:18;;;;;;;2.78;2.00;;;;;;;17.68;65.93;100689.28;4955025;29;20051;-79
2021/09/02 03:06:45;;;;;;;2.47;2.20;;;;;;;17.79;65.52;100698.16;4954903;29;20093;-80
2021/09/02 03:09:12;;;;;;;2.25;1.92;;;;;;;17.72;65.69;100696.03;4954482;29;20039;-80
2021/09/02 03:11:38;;;;;;;4.63;2.08;;;;;;;17.58;66.40;100696.19;4954306;29;20050;-79
2021/09/02 03:14:06;;;;;;;3.53;1.70;;;;;;;17.63;66.30;100697.56;4954147;29;20371;-79
2021/09/02 03:16:32;;;;;;;2.97;2.42;;;;;;;17.57;67.02;100697.97;4953957;29;20114;-79
2021/09/02 03:18:59;;;;;;;3.78;2.40;;;;;;;17.55;67.04;100694.63;4954177;29;20102;-79
2021/09/02 03:21:26;;;;;;;3.72;2.25;;;;;;;17.65;66.74;100692.16;4954036;29;20047;-79
2021/09/02 03:23:53;;;;;;;3.15;2.60;;;;;;;17.68;67.21;100698.03;4954326;29;20107;-79
2021/09/02 03:26:20;;;;;;;3.85;3.03;;;;;;;17.62;67.68;100700.28;4954068;29;20035;-79
2021/09/02 03:28:47;;;;;;;4.43;2.90;;;;;;;17.58;67.42;100699.69;4968788;28;20061;-79
2021/09/02 03:31:14;;;;;;;4.82;3.17;;;;;;;17.63;67.27;100707.22;4952300;29;20035;-80
2021/09/02 03:33:41;;;;;;;6.03;3.17;;;;;;;17.59;67.61;100705.78;4953931;29;20375;-79
2021/09/02 03:36:07;;;;;;;5.97;3.20;;;;;;;17.02;69.02;100699.25;4953966;29;20125;-80
2021/09/02 03:38:34;;;;;;;6.30;2.83;;;;;;;16.88;70.54;100696.72;4953393;29;20094;-80
2021/09/02 03:41:01;;;;;;;8.25;3.20;;;;;;;16.92;70.33;100693.78;4955684;28;20062;-80
2021/09/02 03:43:27;;;;;;;3.55;2.70;;;;;;;17.06;69.96;100706.00;4957594;29;20078;-79
2021/09/02 03:45:54;;;;;;;5.28;3.38;;;;;;;17.18;69.79;100701.66;4957909;29;20047;-80
2021/09/02 03:48:21;;;;;;;3.75;2.80;;;;;;;17.16;69.90;100708.84;4957550;29;20494;-79
2021/09/02 03:50:48;;;;;;;6.25;4.13;;;;;;;16.99;70.56;100704.72;4958081;29;20043;-80
2021/09/02 03:53:15;;;;;;;6.13;3.97;;;;;;;16.81;71.03;100712.13;4957627;29;20043;-79
2021/09/02 03:55:41;;;;;;;5.65;3.97;;;;;;;16.74;71.22;100716.97;4957663;29;20094;-79
2021/09/02 03:58:08;;;;;;;5.18;2.97;;;;;;;16.69;71.38;100720.81;4957213;29;20486;-79
2021/09/02 04:00:35;;;;;;;4.82;3.25;;;;;;;16.86;70.88;100728.44;4940146;29;20050;-79
2021/09/02 04:03:02;;;;;;;3.85;3.45;;;;;;;16.92;70.26;100737.72;4957483;29;20506;-79
2021/09/02 04:05:29;;;;;;;7.10;3.92;;;;;;;16.66;71.55;100742.91;4957103;29;20093;-79
2021/09/02 04:07:56;;;;;;;4.47;3.30;;;;;;;16.76;71.29;100744.00;4957544;29;20047;-79
2021/09/02 04:10:23;;;;;;;7.57;4.55;;;;;;;16.92;70.86;100738.56;4957009;29;20047;-79
2021/09/02 04:12:50;;;;;;;7.47;6.32;;;;;;;16.71;71.95;100747.91;4940525;29;20110;-79
2021/09/02 04:15:17;;;;;;;7.90;6.43;;;;;;;16.64;73.27;100744.81;4957555;29;20047;-80
2021/09/02 04:17:43;;;;;;;6.50;5.57;;;;;;;16.62;72.38;100752.00;4957318;29;20478;-79
2021/09/02 04:20:11;;;;;;;5.80;4.35;;;;;;;16.67;71.96;100752.53;4957075;29;20039;-80
2021/09/02 04:22:38;;;;;;;9.82;3.55;;;;;;;16.72;71.59;100750.47;4971771;28;20039;-81
2021/09/02 04:25:05;;;;;;;8.68;3.38;;;;;;;16.42;71.92;100758.56;4957082;29;20446;-81
2021/09/02 04:27:33;;;;;;;4.47;3.25;;;;;;;16.20;72.60;100753.03;4949037;29;20118;-80
2021/09/02 04:30:00;;;;;;;6.15;3.70;;;;;;;15.94;74.15;100760.00;4956896;29;20047;-80
2021/09/02 04:32:26;;;;;;;4.03;3.50;;;;;;;16.23;73.06;100761.56;4956896;29;20098;-81
2021/09/02 04:34:53;;;;;;;6.63;3.90;;;;;;;16.36;72.81;100756.34;4956836;29;20478;-79
2021/09/02 04:37:20;;;;;;;7.30;4.70;;;;;;;16.16;73.13;100755.03;4955670;29;20047;-80
2021/09/02 04:39:47;;;;;;;8.75;4.75;;;;;;;16.21;73.19;100747.69;4947589;29;20371;-80
2021/09/02 04:42:13;;;;;;;9.18;5.30;;;;;;;16.14;73.30;100751.66;4953225;29;20070;-80
2021/09/02 04:44:40;;;;;;;5.43;3.65;;;;;;;16.01;73.87;100749.91;4956380;29;20043;-79
2021/09/02 04:47:07;;;;;;;10.27;4.03;;;;;;;16.03;73.93;100751.47;4956417;28;20106;-79
2021/09/02 04:49:34;;;;;;;12.32;4.20;;;;;;;15.82;74.86;100751.09;4955940;28;20070;-79
2021/09/02 04:52:00;;;;;;;5.93;4.38;;;;;;;15.95;74.43;100752.00;4956364;28;20039;-80
2021/09/02 04:54:27;;;;;;;9.13;4.45;;;;;;;16.04;74.46;100755.81;4955835;29;20047;-80
2021/09/02 04:56:54;;;;;;;10.75;5.15;;;;;;;16.27;73.70;100761.38;4956595;29;20047;-78
2021/09/02 04:59:21;;;;;;;9.23;5.97;;;;;;;16.37;73.75;100767.72;4956159;29;20039;-78
2021/09/02 05:01:47;;;;;;;9.52;4.88;;;;;;;16.27;73.90;100771.91;4936615;28;20043;-78
2021/09/02 05:04:14;;;;;;;5.68;4.65;;;;;;;16.30;73.30;100766.41;4952706;28;20109;-80
2021/09/02 05:06:41;;;;;;;5.50;3.75;;;;;;;16.50;72.66;100766.78;4954106;29;20039;-79
2021/09/02 05:09:08;;;;;;;9.85;4.80;;;;;;;16.58;72.44;100771.56;4954601;29;20449;-79
2021/09/02 05:11:35;;;;;;;8.48;4.78;;;;;;;17.10;70.69;100764.56;4956126;29;20070;-79
2021/09/02 05:14:01;;;;;;;5.22;4.35;;;;;;;17.02;70.59;100765.09;4955770;29;20067;-79
2021/09/02 05:16:28;;;;;;;4.50;3.58;;;;;;;17.15;70.12;100759.81;4955896;29;20094;-80
2021/09/02 05:18:55;;;;;;;4.90;3.85;;;;;;;16.93;70.70;100760.47;4956589;28;20090;-82
2021/09/02 05:21:22;;;;;;;7.15;3.80;;;;;;;17.10;70.43;100759.28;4952154;28;20394;-81
2021/09/02 05:23:48;;;;;;;7.07;3.75;;;;;;;17.14;70.45;100758.13;4953030;29;20045;-84
2021/09/02 05:26:15;;;;;;;11.55;4.20;;;;;;;17.41;69.35;100756.22;4952442;29;20044;-85
2021/09/02 05:28:42;;;;;;;5.75;3.65;;;;;;;17.38;69.31;100751.16;4951402;29;20102;-83
2021/09/02 05:31:09;;;;;;;5.55;3.08;;;;;;;17.47;69.20;100753.16;4953549;29;20063;-83
2021/09/02 05:33:36;;;;;;;10.43;3.50;;;;;;;17.59;68.74;100753.25;4952124;29;20039;-84
2021/09/02 05:36:03;;;;;;;7.38;3.30;;;;;;;17.78;68.27;100754.47;4960615;28;20438;-82
2021/09/02 05:38:31;;;;;;;8.13;3.55;;;;;;;17.90;67.82;100762.47;4962672;29;20047;-81
2021/09/02 05:40:57;;;;;;;4.07;2.90;;;;;;;17.94;67.46;100758.63;4948843;29;20066;-83
2021/09/02 05:43:24;;;;;;;6.78;3.05;;;;;;;18.30;66.61;100761.22;4962384;29;20101;-82
2021/09/02 05:45:51;;;;;;;6.97;3.45;;;;;;;18.07;67.38;100764.72;4952860;29;20111;-82
2021/09/02 05:48:18;;;;;;;4.53;3.03;;;;;;;18.38;66.86;100767.75;4955452;29;20062;-84
2021/09/02 05:50:44;;;;;;;5.85;4.85;;;;;;;18.36;66.26;100764.34;4952730;29;20028;-83
2021/09/02 05:53:12;;;;;;;12.98;6.22;;;;;;;18.58;65.48;100767.91;4965667;28;20042;-83
2021/09/02 05:55:38;;;;;;;17.30;6.32;;;;;;;18.55;65.49;100770.78;4951370;29;20066;-82
2021/09/02 05:58:05;;;;;;;23.95;6.82;;;;;;;19.12;63.75;100769.13;4953547;29;20035;-81
2021/09/02 06:00:32;;;;;;;13.82;7.07;;;;;;;18.88;64.37;100771.88;4967412;28;20067;-78
2021/09/02 06:02:59;;;;;;;11.18;8.73;;;;;;;18.89;64.34;100768.25;4970429;28;20054;-88
2021/09/02 06:05:26;;;;;;;13.90;6.78;;;;;;;19.06;63.79;100769.59;4961969;28;20046;-79
2021/09/02 06:07:53;;;;;;;14.57;9.68;;;;;;;18.91;63.76;100771.66;4975352;29;20019;-79
2021/09/02 06:10:20;;;;;;;11.18;9.18;;;;;;;18.80;64.42;100780.38;4972808;28;20023;-77
2021/09/02 06:12:46;;;;;;;16.58;8.30;;;;;;;18.59;65.18;100776.69;4961500;29;20467;-78
2021/09/02 06:15:13;;;;;;;13.35;10.85;;;;;;;18.33;65.69;100779.47;4962808;29;20089;-76
2021/09/02 06:17:40;;;;;;;21.83;10.50;;;;;;;18.58;65.58;100780.28;4959098;29;20043;-77
2021/09/02 06:20:07;;;;;;;18.63;11.38;;;;;;;18.57;64.86;100779.44;4955586;29;20106;-77
2021/09/02 06:22:34;;;;;;;12.43;11.18;;;;;;;18.27;65.96;100781.72;4948365;29;20563;-75
2021/09/02 06:25:06;;;;;;;23.23;12.68;;;;;;;18.49;65.54;100778.34;4950487;29;20043;-76
2021/09/02 06:27:33;;;;;;;11.25;9.95;;;;;;;18.64;65.15;100784.25;4950490;29;20502;-75
2021/09/02 06:30:00;;;;;;;17.55;12.93;;;;;;;18.67;64.76;100784.03;4935685;29;20039;-76
2021/09/02 06:32:26;;;;;;;15.00;10.30;;;;;;;18.78;64.37;100792.84;4948434;29;20487;-75
2021/09/02 06:34:53;;;;;;;17.85;12.00;;;;;;;18.67;64.92;100794.59;4949915;29;20039;-77
2021/09/02 06:37:20;;;;;;;12.48;10.52;;;;;;;18.94;64.28;100795.16;4949284;29;20249;-78
2021/09/02 06:39:47;;;;;;;14.23;10.68;;;;;;;18.97;64.58;100799.41;4949712;29;20040;-79
2021/09/02 06:42:13;;;;;;;15.73;11.05;;;;;;;18.55;65.64;100801.63;4951414;29;20051;-78
2021/09/02 06:44:42;;;;;;;13.32;12.02;;;;;;;18.11;66.68;100792.56;4949827;29;20039;-79
2021/09/02 06:47:08;;;;;;;16.38;12.40;;;;;;;18.22;66.26;100794.41;4929996;29;20093;-80
2021/09/02 06:49:35;;;;;;;14.25;12.18;;;;;;;18.56;65.57;100795.41;4946437;29;20039;-79
2021/09/02 06:52:02;;;;;;;12.20;10.90;;;;;;;18.84;64.58;100794.19;4950257;29;20046;-78
2021/09/02 06:54:29;;;;;;;10.25;9.30;;;;;;;18.92;64.09;100794.47;4953551;28;20081;-78
2021/09/02 06:56:58;;;;;;;10.40;8.40;;;;;;;19.04;64.06;100797.97;4947864;29;20438;-77
2021/09/02 06:59:25;;;;;;;9.95;8.85;;;;;;;19.01;64.54;100792.91;4946298;29;20051;-77
2021/09/02 07:01:51;;;;;;;11.18;9.10;;;;;;;19.15;63.15;100795.31;4952631;29;20371;-78
2021/09/02 07:04:18;;;;;;;11.07;9.93;;;;;;;18.88;63.92;100798.28;4950707;29;20558;-78
2021/09/02 07:06:45;;;;;;;9.88;9.07;;;;;;;18.94;64.12;100796.97;4953361;28;20043;-77
2021/09/02 07:09:12;;;;;;;12.27;9.32;;;;;;;19.17;63.93;100803.13;4949963;29;20039;-79
2021/09/02 07:11:38;;;;;;;12.82;9.35;;;;;;;19.24;63.88;100799.06;4948935;28;20406;-81
2021/09/02 07:14:10;;;;;;;14.43;12.00;;;;;;;19.09;64.54;100796.66;4946794;28;20080;-82
2021/09/02 07:16:41;;;;;;;13.38;11.93;;;;;;;19.22;63.89;100796.53;4935329;29;20040;-81
2021/09/02 07:19:08;;;;;;;11.60;10.60;;;;;;;19.22;64.25;100785.94;4939064;29;20044;-81
2021/09/02 07:21:35;;;;;;;14.10;12.75;;;;;;;19.33;63.06;100783.34;4938951;29;20050;-83
2021/09/02 07:24:03;;;;;;;15.63;13.85;;;;;;;19.33;63.88;100790.41;4943480;29;20118;-79
2021/09/02 07:26:29;;;;;;;15.52;14.13;;;;;;;19.20;64.46;100793.16;4951642;29;20122;-78
2021/09/02 07:28:56;;;;;;;17.58;14.65;;;;;;;19.36;64.03;100792.81;4946921;29;20118;-80
2021/09/02 07:31:23;;;;;;;20.63;15.68;;;;;;;19.42;63.45;100780.94;4951177;29;20051;-77
2021/09/02 07:33:52;;;;;;;15.50;14.20;;;;;;;19.41;63.65;100793.31;4946219;29;20047;-77
2021/09/02 07:36:18;;;;;;;15.95;13.30;;;;;;;19.62;63.25;100790.81;4950512;29;20058;-79
2021/09/02 07:39:05;;;;;;;19.80;15.50;;;;;;;19.85;62.47;100799.53;4938431;29;20554;-78
2021/09/02 07:41:33;;;;;;;26.05;18.20;;;;;;;19.96;61.97;100801.34;4951154;29;20599;-78
2021/09/02 07:44:00;;;;;;;25.02;21.88;;;;;;;19.93;62.05;100793.66;4954011;29;20064;-78
2021/09/02 07:46:28;;;;;;;21.88;19.60;;;;;;;20.19;61.52;100791.53;4948271;29;20047;-80
2021/09/02 07:48:55;;;;;;;21.58;18.75;;;;;;;20.17;61.61;100790.81;4949414;29;20513;-79
2021/09/02 07:51:21;;;;;;;20.02;17.75;;;;;;;20.27;61.17;100800.53;4931410;29;20054;-76
2021/09/02 07:53:48;;;;;;;15.98;13.98;;;;;;;20.50;60.71;100803.94;4947079;29;20110;-77
2021/09/02 07:56:15;;;;;;;10.88;9.20;;;;;;;20.61;59.21;100803.06;4950191;29;20044;-77
2021/09/02 07:58:42;;;;;;;10.15;9.20;;;;;;;20.63;59.05;100811.75;4946995;29;20363;-74
2021/09/02 08:01:13;;;;;;;13.07;11.63;;;;;;;20.69;58.92;100808.56;4944147;29;20048;-78
2021/09/02 08:03:41;;;;;;;14.45;12.90;;;;;;;20.75;59.19;100812.50;4946221;28;20038;-75
2021/09/02 08:06:08;;;;;;;18.42;15.23;;;;;;;20.80;58.91;100811.16;4951182;28;20047;-76
2021/09/02 08:08:35;;;;;;;14.85;13.30;;;;;;;20.84;58.03;100807.28;4948858;29;20115;-75
2021/09/02 08:11:02;;;;;;;16.40;12.57;;;;;;;20.85;58.67;100805.47;4948995;29;20050;-82
2021/09/02 08:13:29;;;;;;;18.67;12.20;;;;;;;21.06;58.03;100802.81;4947284;29;20061;-79
2021/09/02 08:15:56;;;;;;;13.32;6.22;;;;;;;21.23;56.62;100802.22;4949471;29;20043;-78
2021/09/02 08:18:23;;;;;;;14.55;5.85;;;;;;;21.34;55.99;100811.94;4948792;29;20043;-78
2021/09/02 08:20:50;;;;;;;12.65;6.35;;;;;;;21.35;55.32;100809.13;4950079;29;20475;-78
2021/09/02 08:23:17;;;;;;;11.27;5.90;;;;;;;21.40;55.35;100817.53;4951779;29;20863;-79
2021/09/02 08:25:44;;;;;;;17.90;6.03;;;;;;;21.48;55.22;100805.44;4950537;28;20089;-79
2021/09/02 08:28:11;;;;;;;17.02;7.45;;;;;;;21.54;54.25;100823.47;4952639;29;20500;-78
2021/09/02 08:30:38;;;;;;;16.27;6.57;;;;;;;21.68;54.42;100815.16;4950783;29;20098;-78
2021/09/02 08:33:05;;;;;;;22.23;7.70;;;;;;;21.69;53.92;100807.06;4951262;29;20418;-77
2021/09/02 08:35:33;;;;;;;25.80;7.38;;;;;;;21.76;53.98;100817.13;4948779;29;20090;-76
2021/09/02 08:38:02;;;;;;;16.58;7.22;;;;;;;21.85;53.71;100811.84;4953618;29;20043;-78
2021/09/02 08:40:32;;;;;;;16.27;9.60;;;;;;;21.85;53.36;100817.16;4953303;29;20047;-78
2021/09/02 08:42:59;;;;;;;12.25;5.78;;;;;;;22.02;52.85;100813.00;4950662;29;20060;-78
2021/09/02 08:45:29;;;;;;;10.57;5.63;;;;;;;22.02;51.75;100809.50;4953983;29;20051;-77
2021/09/02 08:47:57;;;;;;;13.65;6.45;;;;;;;21.95;51.71;100811.88;4954544;29;20495;-76
2021/09/02 08:50:26;;;;;;;17.92;8.98;;;;;;;22.11;51.93;100804.25;4953817;29;20048;-76
2021/09/02 08:52:56;;;;;;;11.50;5.78;;;;;;;22.19;51.63;100807.03;4954886;29;20390;-76
2021/09/02 08:55:23;;;;;;;10.00;3.97;;;;;;;22.26;50.44;100799.34;4931834;29;20059;-74
2021/09/02 08:57:54;;;;;;;13.88;3.85;;;;;;;22.16;49.87;100804.69;4936743;29;20040;-78
2021/09/02 09:00:22;;;;;;;4.78;3.65;;;;;;;22.32;49.85;100809.47;4959893;28;20039;-76
2021/09/02 09:02:59;;;;;;;7.85;4.18;;;;;;;22.30;50.01;100808.72;4995665;23;20443;-77
2021/09/02 09:05:28;;;;;;;6.13;3.65;;;;;;;22.32;50.32;100808.59;4663993;23;20052;-77
2021/09/02 09:07:55;;;;;;;9.88;3.85;;;;;;;22.53;50.31;100800.47;4933803;29;20048;-77
2021/09/02 09:10:27;;;;;;;6.32;4.65;;;;;;;22.38;50.02;100802.75;4932484;29;20371;-76
2021/09/02 09:12:59;;;;;;;17.02;4.72;;;;;;;22.42;50.15;100793.50;4937673;29;20048;-78
2021/09/02 09:15:30;;;;;;;7.15;4.28;;;;;;;22.62;50.37;100786.38;4937412;29;20050;-76
2021/09/02 09:18:22;;;;;;;11.43;3.95;;;;;;;22.73;48.80;100795.00;4934820;29;20048;-76
2021/09/02 09:21:05;;;;;;;6.22;3.60;;;;;;;22.86;48.13;100784.09;4936750;29;20697;-75
2021/09/02 09:24:04;;;;;;;9.95;3.65;;;;;;;22.90;49.24;100788.16;4938248;29;20037;-75
2021/09/02 09:26:33;;;;;;;8.25;4.03;;;;;;;22.84;50.34;100780.72;4934405;29;20056;-76
2021/09/02 09:29:17;;;;;;;12.95;3.67;;;;;;;22.94;47.20;100788.72;4937503;29;20042;-77
2021/09/02 09:31:50;;;;;;;39.63;4.65;;;;;;;22.84;47.94;100783.38;4935005;29;20110;-75
2021/09/02 09:34:17;;;;;;;12.60;3.90;;;;;;;22.95;47.60;100785.06;4936987;29;20514;-76
2021/09/02 09:36:44;;;;;;;4.55;3.92;;;;;;;23.01;48.14;100784.53;4955283;28;20505;-77
2021/09/02 09:39:13;;;;;;;5.60;2.60;;;;;;;23.10;46.91;100788.13;4931920;29;20050;-76
2021/09/02 09:41:46;;;;;;;5.88;2.60;;;;;;;23.02;46.04;100785.38;4931979;29;20047;-76
2021/09/02 09:44:19;;;;;;;14.90;2.88;;;;;;;23.41;45.73;100772.75;4942359;29;20055;-76
2021/09/02 09:47:04;;;;;;;4.45;2.05;;;;;;;23.41;45.55;100775.41;4939413;29;20047;-77
2021/09/02 09:49:52;;;;;;;5.43;2.67;;;;;;;23.24;46.37;100775.22;4933915;29;20083;-77
2021/09/02 09:52:30;;;;;;;2.50;2.15;;;;;;;23.32;47.21;100776.28;4936086;29;20105;-77
2021/09/02 09:55:03;;;;;;;2.83;2.53;;;;;;;23.62;44.36;100762.72;4941226;29;20047;-77
2021/09/02 09:57:31;;;;;;;3.70;3.22;;;;;;;23.39;45.49;100767.59;4936457;29;20054;-79
2021/09/02 10:00:25;;;;;;;4.15;1.98;;;;;;;23.49;43.00;100765.72;4940772;29;20134;-78
2021/09/02 10:02:52;;;;;;;3.28;2.10;;;;;;;23.76;41.93;100774.72;4932966;29;20047;-77
2021/09/02 10:05:21;;;;;;;3.40;2.33;;;;;;;23.56;44.44;100767.78;4939574;29;20431;-78
2021/09/02 10:07:51;;;;;;;7.60;2.60;;;;;;;23.51;43.92;100761.09;4932184;29;20116;-77
2021/09/02 10:10:18;;;;;;;4.75;2.30;;;;;;;23.83;43.47;100775.78;4934573;29;20114;-75
2021/09/02 10:12:47;;;;;;;5.40;2.08;;;;;;;23.91;42.72;100773.19;4929930;29;20098;-77
2021/09/02 10:15:20;;;;;;;9.93;2.03;;;;;;;23.85;43.61;100768.47;4924321;29;20044;-75
2021/09/02 10:17:48;;;;;;;4.35;2.40;;;;;;;23.88;42.86;100762.88;4925022;29;20051;-76
2021/09/02 10:20:27;;;;;;;14.23;2.00;;;;;;;24.03;43.97;100758.69;4926604;29;20050;-76
2021/09/02 10:22:59;;;;;;;2.97;1.52;;;;;;;24.25;41.32;100759.25;4927853;29;20047;-78
2021/09/02 10:25:32;;;;;;;2.92;2.47;;;;;;;24.11;44.10;100754.44;4916746;29;20134;-77
2021/09/02 10:28:09;;;;;;;2.03;1.70;;;;;;;24.12;43.47;100748.13;4932833;29;20046;-77
2021/09/02 10:30:48;;;;;;;5.18;2.42;;;;;;;24.20;41.57;100750.88;4927364;29;20036;-75
2021/09/02 10:33:33;;;;;;;2.40;1.90;;;;;;;24.36;41.80;100742.22;4927393;29;20046;-78
2021/09/02 10:36:10;;;;;;;2.20;2.00;;;;;;;24.28;41.83;100738.44;4926956;29;20070;-79
2021/09/02 10:38:45;;;;;;;5.28;3.00;;;;;;;24.46;40.94;100733.13;4918334;29;20537;-77
2021/09/02 10:41:12;;;;;;;5.93;2.33;;;;;;;24.44;39.81;100740.44;4925352;29;20055;-79
2021/09/02 10:43:55;;;;;;;4.22;1.70;;;;;;;24.30;41.82;100740.97;4926019;29;20050;-76
2021/09/02 10:46:38;;;;;;;3.13;2.28;;;;;;;24.31;41.66;100737.31;4927093;29;20046;-78
2021/09/02 10:49:16;;;;;;;3.42;2.50;;;;;;;24.34;42.29;100734.31;4921913;29;20051;-78
2021/09/02 10:51:47;;;;;;;4.63;2.53;;;;;;;24.41;42.07;100740.75;4917223;29;20047;-77
2021/09/02 10:54:15;;;;;;;3.28;2.03;;;;;;;24.39;41.34;100734.72;4916529;29;20134;-78
2021/09/02 10:57:00;;;;;;;4.72;1.83;;;;;;;24.55;41.47;100744.69;4927147;29;20410;-77
2021/09/02 10:59:51;;;;;;;8.52;1.98;;;;;;;24.61;41.63;100732.56;4931086;29;20043;-80
2021/09/02 11:02:17;;;;;;;3.85;2.92;;;;;;;24.69;41.60;100735.28;4927457;29;20044;-82
2021/09/02 11:04:56;;;;;;;2.80;1.85;;;;;;;24.43;42.04;100730.78;4926534;29;20580;-78
2021/09/02 11:07:37;;;;;;;3.63;2.03;;;;;;;24.27;42.33;100731.44;4923848;29;20060;-78
2021/09/02 11:10:12;;;;;;;6.63;2.00;;;;;;;24.70;40.46;100723.63;4925407;29;20040;-81
2021/09/02 11:12:39;;;;;;;4.40;2.00;;;;;;;24.48;41.48;100723.16;4925477;29;20031;-81
2021/09/02 11:15:07;;;;;;;4.40;2.15;;;;;;;24.71;42.20;100719.97;4932745;29;20083;-78
2021/09/02 11:17:34;;;;;;;4.53;1.60;;;;;;;24.82;41.26;100709.03;4931013;29;20047;-83
2021/09/02 11:20:24;;;;;;;3.45;2.28;;;;;;;24.86;41.22;100721.06;4931883;29;20397;-83
2021/09/02 11:23:06;;;;;;;3.30;2.75;;;;;;;25.10;41.37;100716.91;4928691;29;20099;-82
2021/09/02 11:25:45;;;;;;;4.70;2.58;;;;;;;25.13;40.41;100717.41;4931505;29;20453;-79
2021/09/02 11:28:13;;;;;;;3.13;1.90;;;;;;;24.94;41.14;100712.28;4930831;29;20086;-80
2021/09/02 11:30:40;;;;;;;3.45;1.80;;;;;;;25.23;40.71;100701.28;4933225;29;20513;-78